Time;durP1;ratioP1;P1;durP2;ratioP2;P2;SDS_P1;SDS_P2;PMS_P1;PMS_P2;Temp;Humidity;BMP_temperature;BMP_pressure;BME280_temperature;BME280_humidity;BME280_pressure;Samples;Min_cycle;Max_cycle;Signal;HPM_P1;HPM_P2
2021/08/14 00:00:50;;;;;;;;;;;;;;;;;;5089612;28;19935;-62
2021/08/14 00:03:16;;;;;;;;;;;;;;;;;;5089211;28;19904;-62
2021/08/14 00:05:42;;;;;;;;;;;;;;;;;;5088247;28;20282;-62
2021/08/14 00:08:08;;;;;;;;;;;;;;;;;;5088382;28;19916;-62
2021/08/14 00:10:34;;;;;;;;;;;;;;;;;;5070680;28;19911;-62
2021/08/14 00:13:00;;;;;;;;;;;;;;;;;;5089138;28;19911;-62
2021/08/14 00:15:26;;;;;;;;;;;;;;;;;;5089082;28;20033;-62
2021/08/14 00:17:52;;;;;;;;;;;;;;;;;;5089185;28;19994;-62
2021/08/14 00:20:18;;;;;;;;;;;;;;;;;;5088785;28;19912;-62
2021/08/14 00:22:44;;;;;;;;;;;;;;;;;;5088721;28;19904;-61
2021/08/14 00:25:10;;;;;;;;;;;;;;;;;;5089053;28;19904;-62
2021/08/14 00:27:36;;;;;;;;;;;;;;;;;;5088703;28;19923;-62
2021/08/14 00:30:02;;;;;;;;;;;;;;;;;;5088377;28;19908;-61
2021/08/14 00:32:28;;;;;;;;;;;;;;;;;;5088898;28;20388;-62
2021/08/14 00:34:54;;;;;;;;;;;;;;;;;;5087536;28;19923;-62
2021/08/14 00:37:20;;;;;;;;;;;;;;;;;;5089254;28;19918;-62
2021/08/14 00:39:46;;;;;;;;;;;;;;;;;;5088205;28;19908;-62
2021/08/14 00:42:11;;;;;;;;;;;;;;;;;;5087633;28;19908;-62
2021/08/14 00:44:37;;;;;;;;;;;;;;;;;;5087126;28;20449;-61
2021/08/14 00:47:04;;;;;;;;;;;;;;;;;;5088491;28;19919;-62
2021/08/14 00:49:30;;;;;;;;;;;;;;;;;;5070037;28;20272;-61
2021/08/14 00:51:56;;;;;;;;;;;;;;;;;;5088024;28;19926;-62
2021/08/14 00:54:22;;;;;;;;;;;;;;;;;;5088623;28;19908;-62
2021/08/14 00:56:48;;;;;;;;;;;;;;;;;;5087814;28;19910;-62
2021/08/14 00:59:14;;;;;;;;;;;;;;;;;;5087972;28;19912;-62
2021/08/14 01:01:40;;;;;;;;;;;;;;;;;;5086953;28;20012;-62
2021/08/14 01:04:06;;;;;;;;;;;;;;;;;;5087704;28;19908;-62
2021/08/14 01:06:32;;;;;;;;;;;;;;;;;;5087648;28;19993;-62
2021/08/14 01:08:58;;;;;;;;;;;;;;;;;;5087766;28;19927;-62
2021/08/14 01:11:24;;;;;;;;;;;;;;;;;;5087783;28;19904;-62
2021/08/14 01:13:50;;;;;;;;;;;;;;;;;;5087330;28;20337;-62
2021/08/14 01:16:16;;;;;;;;;;;;;;;;;;5087976;28;19907;-62
2021/08/14 01:18:42;;;;;;;;;;;;;;;;;;5087401;28;20374;-62
2021/08/14 01:21:08;;;;;;;;;;;;;;;;;;5087569;28;19958;-62
2021/08/14 01:23:34;;;;;;;;;;;;;;;;;;5087443;28;19986;-62
2021/08/14 01:26:00;;;;;;;;;;;;;;;;;;5087616;28;19904;-62
2021/08/14 01:28:26;;;;;;;;;;;;;;;;;;5087880;28;19912;-61
2021/08/14 01:30:52;;;;;;;;;;;;;;;;;;5087885;28;20342;-61
2021/08/14 01:33:18;;;;;;;;;;;;;;;;;;5085476;28;19958;-61
2021/08/14 01:35:44;;;;;;;;;;;;;;;;;;5086942;28;19916;-62
2021/08/14 01:38:10;;;;;;;;;;;;;;;;;;5086862;28;19908;-61
2021/08/14 01:40:36;;;;;;;;;;;;;;;;;;5087897;28;20293;-61
2021/08/14 01:43:02;;;;;;;;;;;;;;;;;;5087242;28;19904;-61
2021/08/14 01:45:28;;;;;;;;;;;;;;;;;;5086921;28;19908;-61
2021/08/14 01:47:54;;;;;;;;;;;;;;;;;;5086723;28;20010;-61
2021/08/14 01:50:20;;;;;;;;;;;;;;;;;;5087266;28;19981;-61
2021/08/14 01:52:46;;;;;;;;;;;;;;;;;;5086768;28;19923;-62
2021/08/14 01:55:12;;;;;;;;;;;;;;;;;;5087105;28;19904;-62
2021/08/14 01:57:38;;;;;;;;;;;;;;;;;;5087251;28;19954;-62
2021/08/14 02:00:04;;;;;;;;;;;;;;;;;;5088046;28;19920;-62
2021/08/14 02:02:30;;;;;;;;;;;;;;;;;;5086015;28;19915;-62
2021/08/14 02:04:56;;;;;;;;;;;;;;;;;;5084464;28;19934;-62
2021/08/14 02:07:22;;;;;;;;;;;;;;;;;;5085979;28;19920;-62
2021/08/14 02:09:48;;;;;;;;;;;;;;;;;;5086629;28;19904;-62
2021/08/14 02:12:13;;;;;;;;;;;;;;;;;;5085970;28;20435;-62
2021/08/14 02:14:39;;;;;;;;;;;;;;;;;;5085209;28;19915;-61
2021/08/14 02:17:05;;;;;;;;;;;;;;;;;;5086534;28;19904;-62
2021/08/14 02:19:31;;;;;;;;;;;;;;;;;;5085907;28;19924;-62
2021/08/14 02:21:57;;;;;;;;;;;;;;;;;;5085121;28;19908;-62
2021/08/14 02:24:23;;;;;;;;;;;;;;;;;;5086088;28;19904;-62
2021/08/14 02:26:49;;;;;;;;;;;;;;;;;;5086223;28;19930;-61
2021/08/14 02:29:15;;;;;;;;;;;;;;;;;;5087083;28;19904;-62
2021/08/14 02:31:41;;;;;;;;;;;;;;;;;;5086582;28;19930;-61
2021/08/14 02:34:07;;;;;;;;;;;;;;;;;;5087371;28;19912;-61
2021/08/14 02:36:33;;;;;;;;;;;;;;;;;;5086750;28;20370;-62
2021/08/14 02:38:59;;;;;;;;;;;;;;;;;;5086014;28;19908;-61
2021/08/14 02:41:25;;;;;;;;;;;;;;;;;;5085879;28;19908;-62
2021/08/14 02:43:51;;;;;;;;;;;;;;;;;;5086227;28;19914;-61
2021/08/14 02:46:17;;;;;;;;;;;;;;;;;;5086776;28;19943;-61
2021/08/14 02:48:43;;;;;;;;;;;;;;;;;;5086225;28;19953;-62
2021/08/14 02:51:08;;;;;;;;;;;;;;;;;;5086759;28;19987;-62
2021/08/14 02:53:34;;;;;;;;;;;;;;;;;;5087080;28;20003;-62
2021/08/14 02:56:00;;;;;;;;;;;;;;;;;;5086551;28;19998;-62
2021/08/14 02:58:27;;;;;;;;;;;;;;;;;;5086651;28;19907;-62
2021/08/14 03:00:53;;;;;;;;;;;;;;;;;;5085515;28;19908;-62
2021/08/14 03:03:19;;;;;;;;;;;;;;;;;;5085268;28;19919;-62
2021/08/14 03:05:45;;;;;;;;;;;;;;;;;;5089816;28;19908;-62
2021/08/14 03:08:11;;;;;;;;;;;;;;;;;;5090348;28;19969;-62
2021/08/14 03:10:37;;;;;;;;;;;;;;;;;;5089523;28;19991;-62
2021/08/14 03:13:03;;;;;;;;;;;;;;;;;;5089296;28;19952;-62
2021/08/14 03:15:29;;;;;;;;;;;;;;;;;;5090332;28;19982;-62
2021/08/14 03:17:55;;;;;;;;;;;;;;;;;;5088689;28;20018;-61
2021/08/14 03:20:21;;;;;;;;;;;;;;;;;;5090192;28;19927;-61
2021/08/14 03:22:47;;;;;;;;;;;;;;;;;;5089704;28;19907;-62
2021/08/14 03:25:13;;;;;;;;;;;;;;;;;;5090143;28;19911;-61
2021/08/14 03:27:39;;;;;;;;;;;;;;;;;;5089791;28;20354;-62
2021/08/14 03:30:05;;;;;;;;;;;;;;;;;;5090815;28;19926;-61
2021/08/14 03:32:31;;;;;;;;;;;;;;;;;;5089587;28;19916;-62
2021/08/14 03:34:57;;;;;;;;;;;;;;;;;;5089882;28;19930;-61
2021/08/14 03:37:23;;;;;;;;;;;;;;;;;;5089842;28;19911;-62
2021/08/14 03:39:49;;;;;;;;;;;;;;;;;;5088729;28;19915;-62
2021/08/14 03:42:15;;;;;;;;;;;;;;;;;;5089992;28;19930;-61
2021/08/14 03:44:40;;;;;;;;;;;;;;;;;;5089210;28;19963;-61
2021/08/14 03:47:06;;;;;;;;;;;;;;;;;;5090176;28;19961;-62
2021/08/14 03:49:32;;;;;;;;;;;;;;;;;;5089578;28;19903;-61
2021/08/14 03:51:58;;;;;;;;;;;;;;;;;;5089427;28;20511;-61
2021/08/14 03:54:24;;;;;;;;;;;;;;;;;;5088715;28;19908;-62
2021/08/14 03:56:52;;;;;;;;;;;;;;;;;;5089350;28;19908;-62
2021/08/14 03:59:18;;;;;;;;;;;;;;;;;;5089114;28;19915;-62
2021/08/14 04:01:45;;;;;;;;;;;;;;;;;;5088870;28;20286;-62
2021/08/14 04:04:11;;;;;;;;;;;;;;;;;;5089602;28;19923;-62
2021/08/14 04:06:37;;;;;;;;;;;;;;;;;;5089630;28;19921;-62
2021/08/14 04:09:03;;;;;;;;;;;;;;;;;;5089910;28;19906;-62
2021/08/14 04:11:29;;;;;;;;;;;;;;;;;;5089241;28;19995;-61
2021/08/14 04:13:55;;;;;;;;;;;;;;;;;;5088813;28;19908;-61
2021/08/14 04:16:21;;;;;;;;;;;;;;;;;;5088591;28;19919;-61
2021/08/14 04:18:47;;;;;;;;;;;;;;;;;;5088856;28;19916;-61
2021/08/14 04:21:13;;;;;;;;;;;;;;;;;;5089040;28;19965;-61
2021/08/14 04:23:39;;;;;;;;;;;;;;;;;;5088881;28;19991;-61
2021/08/14 04:26:04;;;;;;;;;;;;;;;;;;5089826;28;19903;-61
2021/08/14 04:28:30;;;;;;;;;;;;;;;;;;5089051;28;19908;-61
2021/08/14 04:30:56;;;;;;;;;;;;;;;;;;5088511;28;19952;-61
2021/08/14 04:33:22;;;;;;;;;;;;;;;;;;5087807;28;19908;-61
2021/08/14 04:35:49;;;;;;;;;;;;;;;;;;5088400;28;19904;-61
2021/08/14 04:38:15;;;;;;;;;;;;;;;;;;5088707;28;19908;-61
2021/08/14 04:40:41;;;;;;;;;;;;;;;;;;5088471;28;19912;-61
2021/08/14 04:43:07;;;;;;;;;;;;;;;;;;5089055;28;19907;-61
2021/08/14 04:45:33;;;;;;;;;;;;;;;;;;5087924;28;19904;-61
2021/08/14 04:47:59;;;;;;;;;;;;;;;;;;5088569;28;19968;-61
2021/08/14 04:50:24;;;;;;;;;;;;;;;;;;5087320;28;19908;-62
2021/08/14 04:52:50;;;;;;;;;;;;;;;;;;5087080;28;19986;-62
2021/08/14 04:55:17;;;;;;;;;;;;;;;;;;5088458;28;19915;-62
2021/08/14 04:57:43;;;;;;;;;;;;;;;;;;5088097;28;19911;-62
2021/08/14 05:00:08;;;;;;;;;;;;;;;;;;5088379;28;19904;-62
2021/08/14 05:02:34;;;;;;;;;;;;;;;;;;5088619;28;19904;-62
2021/08/14 05:05:01;;;;;;;;;;;;;;;;;;5088291;28;19900;-62
2021/08/14 05:07:27;;;;;;;;;;;;;;;;;;5088253;28;19912;-62
2021/08/14 05:09:53;;;;;;;;;;;;;;;;;;5087963;28;19904;-62
2021/08/14 05:12:19;;;;;;;;;;;;;;;;;;5087064;28;19931;-62
2021/08/14 05:14:45;;;;;;;;;;;;;;;;;;5087904;28;20270;-62
2021/08/14 05:17:11;;;;;;;;;;;;;;;;;;5087951;28;19916;-61
2021/08/14 05:19:37;;;;;;;;;;;;;;;;;;5088137;28;19995;-61
2021/08/14 05:22:03;;;;;;;;;;;;;;;;;;5070512;28;19955;-61
2021/08/14 05:24:29;;;;;;;;;;;;;;;;;;5088015;28;19943;-61
2021/08/14 05:26:55;;;;;;;;;;;;;;;;;;5086886;28;19911;-61
2021/08/14 05:29:21;;;;;;;;;;;;;;;;;;5085762;28;19916;-61
2021/08/14 05:31:47;;;;;;;;;;;;;;;;;;5085856;28;19908;-61
2021/08/14 05:34:13;;;;;;;;;;;;;;;;;;5087873;28;19958;-61
2021/08/14 05:36:39;;;;;;;;;;;;;;;;;;5086438;28;19904;-61
2021/08/14 05:39:05;;;;;;;;;;;;;;;;;;5087958;28;19904;-62
2021/08/14 05:41:31;;;;;;;;;;;;;;;;;;5087168;28;20071;-62
2021/08/14 05:43:57;;;;;;;;;;;;;;;;;;5087163;28;19912;-62
2021/08/14 05:46:23;;;;;;;;;;;;;;;;;;5080680;28;19915;-62
2021/08/14 05:48:49;;;;;;;;;;;;;;;;;;5080508;28;19912;-62
2021/08/14 05:51:15;;;;;;;;;;;;;;;;;;5086209;28;19910;-62
2021/08/14 05:53:41;;;;;;;;;;;;;;;;;;5082513;28;19934;-62
2021/08/14 05:56:07;;;;;;;;;;;;;;;;;;5082975;28;19911;-62
2021/08/14 05:58:33;;;;;;;;;;;;;;;;;;5100278;28;19908;-62
2021/08/14 06:00:59;;;;;;;;;;;;;;;;;;5066594;28;19908;-62
2021/08/14 06:03:24;;;;;;;;;;;;;;;;;;5066149;28;20257;-63
2021/08/14 06:05:50;;;;;;;;;;;;;;;;;;5066486;28;19904;-63
2021/08/14 06:08:17;;;;;;;;;;;;;;;;;;5066794;28;19912;-62
2021/08/14 06:10:43;;;;;;;;;;;;;;;;;;5069817;28;19954;-63
2021/08/14 06:13:09;;;;;;;;;;;;;;;;;;5087198;28;19939;-62
2021/08/14 06:15:35;;;;;;;;;;;;;;;;;;5075376;28;19915;-62
2021/08/14 06:18:01;;;;;;;;;;;;;;;;;;5086595;28;19916;-62
2021/08/14 06:20:27;;;;;;;;;;;;;;;;;;5087039;28;20007;-62
2021/08/14 06:22:53;;;;;;;;;;;;;;;;;;5086666;28;19904;-62
2021/08/14 06:25:19;;;;;;;;;;;;;;;;;;5086866;28;19904;-62
2021/08/14 06:27:45;;;;;;;;;;;;;;;;;;5086832;28;19914;-62
2021/08/14 06:30:11;;;;;;;;;;;;;;;;;;5080440;28;19951;-62
2021/08/14 06:32:37;;;;;;;;;;;;;;;;;;5086233;28;19908;-62
2021/08/14 06:35:03;;;;;;;;;;;;;;;;;;5087516;28;19911;-61
2021/08/14 06:37:28;;;;;;;;;;;;;;;;;;5085678;28;19998;-61
2021/08/14 06:39:54;;;;;;;;;;;;;;;;;;5072310;28;19907;-61
2021/08/14 06:42:20;;;;;;;;;;;;;;;;;;5088767;28;19961;-62
2021/08/14 06:44:46;;;;;;;;;;;;;;;;;;5090226;28;19949;-61
2021/08/14 06:47:12;;;;;;;;;;;;;;;;;;5090596;28;19908;-61
2021/08/14 06:49:38;;;;;;;;;;;;;;;;;;5088952;28;19908;-62
2021/08/14 06:52:04;;;;;;;;;;;;;;;;;;5090418;28;19912;-61
2021/08/14 06:54:30;;;;;;;;;;;;;;;;;;5081266;28;19912;-61
2021/08/14 06:56:56;;;;;;;;;;;;;;;;;;5090491;28;19915;-61
2021/08/14 06:59:22;;;;;;;;;;;;;;;;;;5090383;28;19931;-61
2021/08/14 07:01:48;;;;;;;;;;;;;;;;;;5086965;28;19908;-61
2021/08/14 07:04:14;;;;;;;;;;;;;;;;;;5083179;28;19908;-62
2021/08/14 07:06:40;;;;;;;;;;;;;;;;;;5090398;28;19918;-62
2021/08/14 07:09:06;;;;;;;;;;;;;;;;;;5090362;28;19915;-62
2021/08/14 07:11:33;;;;;;;;;;;;;;;;;;5090124;28;20061;-62
2021/08/14 07:13:59;;;;;;;;;;;;;;;;;;5082382;28;19908;-62
2021/08/14 07:16:25;;;;;;;;;;;;;;;;;;5081958;28;20007;-62
2021/08/14 07:18:51;;;;;;;;;;;;;;;;;;5079233;28;19997;-62
2021/08/14 07:21:17;;;;;;;;;;;;;;;;;;5086568;28;19916;-62
2021/08/14 07:23:43;;;;;;;;;;;;;;;;;;5089829;28;19965;-62
2021/08/14 07:26:09;;;;;;;;;;;;;;;;;;5071802;28;19959;-61
2021/08/14 07:28:35;;;;;;;;;;;;;;;;;;5085563;28;19922;-62
2021/08/14 07:31:01;;;;;;;;;;;;;;;;;;5088559;28;20440;-62
2021/08/14 07:33:27;;;;;;;;;;;;;;;;;;5070289;28;19951;-62
2021/08/14 07:35:53;;;;;;;;;;;;;;;;;;5086848;28;19998;-62
2021/08/14 07:38:18;;;;;;;;;;;;;;;;;;5087512;28;19908;-62
2021/08/14 07:40:44;;;;;;;;;;;;;;;;;;5086700;28;19915;-61
2021/08/14 07:43:10;;;;;;;;;;;;;;;;;;5088349;28;19908;-61
2021/08/14 07:45:36;;;;;;;;;;;;;;;;;;5088699;28;19926;-61
2021/08/14 07:48:02;;;;;;;;;;;;;;;;;;5088825;28;20433;-62
2021/08/14 07:50:28;;;;;;;;;;;;;;;;;;5087848;28;19904;-62
2021/08/14 07:52:54;;;;;;;;;;;;;;;;;;5087419;28;19916;-62
2021/08/14 07:55:20;;;;;;;;;;;;;;;;;;5072386;28;19919;-62
2021/08/14 07:57:47;;;;;;;;;;;;;;;;;;5067972;28;19912;-62
2021/08/14 08:00:13;;;;;;;;;;;;;;;;;;5068400;28;20166;-62
2021/08/14 08:02:39;;;;;;;;;;;;;;;;;;5068580;28;19909;-62
2021/08/14 08:05:05;;;;;;;;;;;;;;;;;;5067683;28;19957;-62
2021/08/14 08:07:31;;;;;;;;;;;;;;;;;;5067712;28;19924;-62
2021/08/14 08:09:57;;;;;;;;;;;;;;;;;;5067495;28;19912;-62
2021/08/14 08:12:23;;;;;;;;;;;;;;;;;;5068067;28;20037;-62
2021/08/14 08:14:49;;;;;;;;;;;;;;;;;;5067604;28;19908;-62
2021/08/14 08:17:15;;;;;;;;;;;;;;;;;;5082419;28;19912;-61
2021/08/14 08:19:42;;;;;;;;;;;;;;;;;;5087187;28;19991;-61
2021/08/14 08:22:07;;;;;;;;;;;;;;;;;;5067884;28;19912;-62
2021/08/14 08:24:33;;;;;;;;;;;;;;;;;;5067219;28;20352;-62
2021/08/14 08:27:00;;;;;;;;;;;;;;;;;;5066863;28;19904;-61
2021/08/14 08:29:26;;;;;;;;;;;;;;;;;;5067204;28;20334;-61
2021/08/14 08:31:52;;;;;;;;;;;;;;;;;;5066866;28;19914;-60
2021/08/14 08:34:23;;;;;;;;;;;;;;;;;;5067218;28;19905;-61
2021/08/14 08:36:50;;;;;;;;;;;;;;;;;;5067061;28;19930;-61
2021/08/14 08:39:17;;;;;;;;;;;;;;;;;;5067880;28;19994;-61
2021/08/14 08:41:43;;;;;;;;;;;;;;;;;;5072846;28;19943;-60
2021/08/14 08:44:09;;;;;;;;;;;;;;;;;;5077489;28;19950;-60
2021/08/14 08:46:35;;;;;;;;;;;;;;;;;;5081365;28;19909;-60
2021/08/14 08:49:01;;;;;;;;;;;;;;;;;;5088442;28;19912;-60
2021/08/14 08:51:27;;;;;;;;;;;;;;;;;;5088565;28;20005;-60
2021/08/14 08:53:53;;;;;;;;;;;;;;;;;;5076326;28;19909;-60
2021/08/14 08:56:19;;;;;;;;;;;;;;;;;;5083797;28;19903;-60
2021/08/14 08:58:44;;;;;;;;;;;;;;;;;;5088425;28;19994;-60
2021/08/14 09:01:11;;;;;;;;;;;;;;;;;;5087906;28;19915;-61
2021/08/14 09:03:37;;;;;;;;;;;;;;;;;;5087621;28;19969;-60
2021/08/14 09:06:03;;;;;;;;;;;;;;;;;;5084754;28;19908;-60
2021/08/14 09:08:29;;;;;;;;;;;;;;;;;;5067828;28;19908;-60
2021/08/14 09:10:55;;;;;;;;;;;;;;;;;;5067424;28;19957;-60
2021/08/14 09:13:21;;;;;;;;;;;;;;;;;;5067631;28;19965;-60
2021/08/14 09:15:47;;;;;;;;;;;;;;;;;;5075470;28;20015;-60
2021/08/14 09:18:13;;;;;;;;;;;;;;;;;;5087928;28;20378;-60
2021/08/14 09:20:39;;;;;;;;;;;;;;;;;;5087697;28;19907;-60
2021/08/14 09:23:15;;;;;;;;;;;;;;;;;;5084548;28;19934;-60
2021/08/14 09:25:41;;;;;;;;;;;;;;;;;;5064104;28;19921;-60
2021/08/14 09:28:07;;;;;;;;;;;;;;;;;;5079506;28;19965;-60
2021/08/14 09:30:33;;;;;;;;;;;;;;;;;;5084525;28;19954;-60
2021/08/14 09:32:59;;;;;;;;;;;;;;;;;;5067205;28;19935;-61
2021/08/14 09:35:25;;;;;;;;;;;;;;;;;;5064086;28;19917;-61
2021/08/14 09:37:53;;;;;;;;;;;;;;;;;;5063755;28;19908;-60
2021/08/14 09:40:19;;;;;;;;;;;;;;;;;;5063931;28;19963;-60
2021/08/14 09:42:45;;;;;;;;;;;;;;;;;;5069941;28;19916;-60
2021/08/14 09:45:12;;;;;;;;;;;;;;;;;;5097812;28;19916;-60
2021/08/14 09:47:38;;;;;;;;;;;;;;;;;;5083732;28;19931;-60
2021/08/14 09:50:04;;;;;;;;;;;;;;;;;;5083944;28;19912;-60
2021/08/14 09:52:30;;;;;;;;;;;;;;;;;;5083330;28;19915;-61
2021/08/14 09:54:56;;;;;;;;;;;;;;;;;;5083637;28;19942;-60
2021/08/14 09:57:23;;;;;;;;;;;;;;;;;;5083842;28;19923;-60
2021/08/14 09:59:49;;;;;;;;;;;;;;;;;;5083158;28;20430;-61
2021/08/14 10:02:14;;;;;;;;;;;;;;;;;;5083541;28;19916;-60
2021/08/14 10:04:40;;;;;;;;;;;;;;;;;;5083324;28;19919;-60
2021/08/14 10:07:07;;;;;;;;;;;;;;;;;;5082029;28;19915;-60
2021/08/14 10:09:34;;;;;;;;;;;;;;;;;;5082112;28;19912;-60
2021/08/14 10:12:00;;;;;;;;;;;;;;;;;;5077630;28;19916;-60
2021/08/14 10:14:27;;;;;;;;;;;;;;;;;;5082532;28;20053;-60
2021/08/14 10:16:53;;;;;;;;;;;;;;;;;;5082017;28;19916;-59
2021/08/14 10:19:19;;;;;;;;;;;;;;;;;;5083937;28;19908;-59
2021/08/14 10:21:45;;;;;;;;;;;;;;;;;;5065956;28;19920;-59
2021/08/14 10:24:11;;;;;;;;;;;;;;;;;;5063480;28;20008;-59
2021/08/14 10:26:37;;;;;;;;;;;;;;;;;;5063377;28;19962;-59
2021/08/14 10:29:03;;;;;;;;;;;;;;;;;;5068200;28;20460;-59
2021/08/14 10:31:30;;;;;;;;;;;;;;;;;;5063534;28;19995;-59
2021/08/14 10:33:56;;;;;;;;;;;;;;;;;;5053344;28;19908;-59
2021/08/14 10:36:23;;;;;;;;;;;;;;;;;;5061180;28;20023;-59
2021/08/14 10:38:50;;;;;;;;;;;;;;;;;;5068827;28;19970;-59
2021/08/14 10:41:16;;;;;;;;;;;;;;;;;;5068880;28;19943;-59
2021/08/14 10:43:43;;;;;;;;;;;;;;;;;;5066408;28;20355;-59
2021/08/14 10:46:09;;;;;;;;;;;;;;;;;;5058197;28;19908;-59
2021/08/14 10:48:35;;;;;;;;;;;;;;;;;;5065636;28;20580;-58
2021/08/14 10:51:01;;;;;;;;;;;;;;;;;;5068262;28;19957;-58
2021/08/14 10:53:27;;;;;;;;;;;;;;;;;;5068512;28;19959;-60
2021/08/14 10:55:53;;;;;;;;;;;;;;;;;;5069092;28;19959;-61
2021/08/14 10:58:19;;;;;;;;;;;;;;;;;;5050542;28;19991;-58
2021/08/14 11:00:45;;;;;;;;;;;;;;;;;;5048897;28;19920;-59
2021/08/14 11:03:11;;;;;;;;;;;;;;;;;;5048803;28;19912;-59
2021/08/14 11:05:37;;;;;;;;;;;;;;;;;;5048524;28;19908;-58
2021/08/14 11:08:04;;;;;;;;;;;;;;;;;;5048742;28;19924;-59
2021/08/14 11:10:30;;;;;;;;;;;;;;;;;;5049133;28;20368;-58
2021/08/14 11:12:56;;;;;;;;;;;;;;;;;;5048000;28;19915;-58
2021/08/14 11:15:22;;;;;;;;;;;;;;;;;;5049479;28;19919;-58
2021/08/14 11:17:48;;;;;;;;;;;;;;;;;;5067456;28;19917;-58
2021/08/14 11:20:13;;;;;;;;;;;;;;;;;;5068694;28;19955;-58
2021/08/14 11:22:39;;;;;;;;;;;;;;;;;;5067913;28;19943;-59
2021/08/14 11:25:05;;;;;;;;;;;;;;;;;;5067494;28;19909;-58
2021/08/14 11:27:31;;;;;;;;;;;;;;;;;;5067819;28;19916;-59
2021/08/14 11:29:57;;;;;;;;;;;;;;;;;;5063899;28;20322;-58
2021/08/14 11:32:24;;;;;;;;;;;;;;;;;;5048484;28;20011;-59
2021/08/14 11:34:51;;;;;;;;;;;;;;;;;;5063506;28;20291;-58
2021/08/14 11:37:17;;;;;;;;;;;;;;;;;;5050668;28;19924;-59
2021/08/14 11:39:42;;;;;;;;;;;;;;;;;;5067095;28;20030;-59
2021/08/14 11:42:09;;;;;;;;;;;;;;;;;;5068143;28;20501;-58
2021/08/14 11:44:35;;;;;;;;;;;;;;;;;;5066688;28;20025;-59
2021/08/14 11:47:01;;;;;;;;;;;;;;;;;;5068718;28;19916;-58
2021/08/14 11:49:27;;;;;;;;;;;;;;;;;;5058917;28;19913;-60
2021/08/14 11:51:53;;;;;;;;;;;;;;;;;;5066936;28;20026;-60
2021/08/14 11:54:19;;;;;;;;;;;;;;;;;;5065926;28;19919;-60
2021/08/14 11:56:45;;;;;;;;;;;;;;;;;;5067026;28;19913;-60
2021/08/14 11:59:11;;;;;;;;;;;;;;;;;;5065646;28;19981;-60
2021/08/14 12:01:37;;;;;;;;;;;;;;;;;;5066080;28;20011;-60
2021/08/14 12:04:02;;;;;;;;;;;;;;;;;;5067230;28;19917;-60
2021/08/14 12:06:28;;;;;;;;;;;;;;;;;;5068136;28;19918;-60
2021/08/14 12:08:54;;;;;;;;;;;;;;;;;;5065360;28;19955;-60
2021/08/14 12:11:20;;;;;;;;;;;;;;;;;;5067372;28;19931;-59
2021/08/14 12:13:46;;;;;;;;;;;;;;;;;;5066908;28;19915;-59
2021/08/14 12:16:12;;;;;;;;;;;;;;;;;;5064825;28;19916;-59
2021/08/14 12:18:38;;;;;;;;;;;;;;;;;;5066764;28;19977;-59
2021/08/14 12:21:04;;;;;;;;;;;;;;;;;;5066029;28;19924;-58
2021/08/14 12:23:30;;;;;;;;;;;;;;;;;;5066302;28;19912;-58
2021/08/14 12:25:56;;;;;;;;;;;;;;;;;;5065035;28;20307;-59
2021/08/14 12:28:22;;;;;;;;;;;;;;;;;;5067310;28;20005;-59
2021/08/14 12:30:48;;;;;;;;;;;;;;;;;;5064518;28;19916;-59
2021/08/14 12:33:14;;;;;;;;;;;;;;;;;;5067049;28;19919;-59
2021/08/14 12:35:40;;;;;;;;;;;;;;;;;;5066946;28;20003;-59
2021/08/14 12:38:07;;;;;;;;;;;;;;;;;;5065178;28;19913;-59
2021/08/14 12:40:33;;;;;;;;;;;;;;;;;;5065451;28;19917;-58
2021/08/14 12:42:59;;;;;;;;;;;;;;;;;;5067155;28;20283;-58
2021/08/14 12:45:25;;;;;;;;;;;;;;;;;;5066485;28;19912;-59
2021/08/14 12:47:51;;;;;;;;;;;;;;;;;;5065379;28;20416;-58
2021/08/14 12:50:17;;;;;;;;;;;;;;;;;;5063142;28;19913;-60
2021/08/14 12:52:43;;;;;;;;;;;;;;;;;;5059215;28;20529;-60
2021/08/14 12:55:09;;;;;;;;;;;;;;;;;;5066722;28;20008;-60
2021/08/14 12:57:35;;;;;;;;;;;;;;;;;;5064944;28;19991;-60
2021/08/14 13:00:01;;;;;;;;;;;;;;;;;;5065129;28;20059;-60
2021/08/14 13:02:27;;;;;;;;;;;;;;;;;;5053132;28;19970;-60
2021/08/14 13:04:55;;;;;;;;;;;;;;;;;;5065554;28;20140;-60
2021/08/14 13:07:21;;;;;;;;;;;;;;;;;;5066640;28;20587;-60
2021/08/14 13:09:47;;;;;;;;;;;;;;;;;;5063254;28;20772;-61
2021/08/14 13:12:13;;;;;;;;;;;;;;;;;;5057517;28;19917;-60
2021/08/14 13:14:39;;;;;;;;;;;;;;;;;;5066153;28;19916;-61
2021/08/14 13:17:05;;;;;;;;;;;;;;;;;;5066242;28;19932;-61
2021/08/14 13:19:33;;;;;;;;;;;;;;;;;;5061541;28;19912;-61
2021/08/14 13:21:58;;;;;;;;;;;;;;;;;;5064137;28;19920;-61
2021/08/14 13:24:24;;;;;;;;;;;;;;;;;;5064885;28;19923;-59
2021/08/14 13:26:50;;;;;;;;;;;;;;;;;;5065331;28;19919;-60
2021/08/14 13:29:16;;;;;;;;;;;;;;;;;;5066346;28;19916;-59
2021/08/14 13:31:42;;;;;;;;;;;;;;;;;;5065271;28;19920;-59
2021/08/14 13:34:08;;;;;;;;;;;;;;;;;;5063781;28;19912;-60
2021/08/14 13:36:34;;;;;;;;;;;;;;;;;;5065206;28;19963;-60
2021/08/14 13:39:00;;;;;;;;;;;;;;;;;;5064753;28;20346;-59
2021/08/14 13:41:27;;;;;;;;;;;;;;;;;;5064997;28;19967;-60
2021/08/14 13:43:53;;;;;;;;;;;;;;;;;;5064789;28;19912;-60
2021/08/14 13:46:20;;;;;;;;;;;;;;;;;;5064863;28;19920;-60
2021/08/14 13:48:46;;;;;;;;;;;;;;;;;;5065666;28;20027;-59
2021/08/14 13:51:12;;;;;;;;;;;;;;;;;;5060579;28;20015;-59
2021/08/14 13:53:38;;;;;;;;;;;;;;;;;;5064502;28;19916;-59
2021/08/14 13:56:04;;;;;;;;;;;;;;;;;;5063753;28;19916;-59
2021/08/14 13:58:30;;;;;;;;;;;;;;;;;;5063208;28;20003;-60
2021/08/14 14:00:56;;;;;;;;;;;;;;;;;;5050499;28;20057;-60
2021/08/14 14:03:22;;;;;;;;;;;;;;;;;;5046214;28;19917;-60
2021/08/14 14:05:48;;;;;;;;;;;;;;;;;;5062057;28;19923;-60
2021/08/14 14:08:15;;;;;;;;;;;;;;;;;;5065888;28;19916;-59
2021/08/14 14:10:41;;;;;;;;;;;;;;;;;;5068697;28;19912;-59
2021/08/14 14:13:07;;;;;;;;;;;;;;;;;;5066988;28;19954;-60
2021/08/14 14:15:33;;;;;;;;;;;;;;;;;;5052914;28;19916;-60
2021/08/14 14:17:59;;;;;;;;;;;;;;;;;;5050492;28;19908;-60
2021/08/14 14:20:25;;;;;;;;;;;;;;;;;;5063401;28;19913;-59
2021/08/14 14:22:51;;;;;;;;;;;;;;;;;;5067718;28;19917;-59
2021/08/14 14:25:18;;;;;;;;;;;;;;;;;;5063646;28;19991;-59
2021/08/14 14:27:46;;;;;;;;;;;;;;;;;;5069444;28;19919;-59
2021/08/14 14:30:12;;;;;;;;;;;;;;;;;;5068871;28;19916;-59
2021/08/14 14:32:38;;;;;;;;;;;;;;;;;;5067829;28;20457;-59
2021/08/14 14:35:04;;;;;;;;;;;;;;;;;;5067675;28;19963;-59
2021/08/14 14:37:30;;;;;;;;;;;;;;;;;;5070103;28;19909;-59
2021/08/14 14:39:56;;;;;;;;;;;;;;;;;;5068078;28;19966;-59
2021/08/14 14:42:22;;;;;;;;;;;;;;;;;;5067806;28;19942;-60
2021/08/14 14:44:48;;;;;;;;;;;;;;;;;;5066064;28;19982;-60
2021/08/14 14:47:13;;;;;;;;;;;;;;;;;;5066485;28;19923;-60
2021/08/14 14:49:40;;;;;;;;;;;;;;;;;;5066776;28;20001;-60
2021/08/14 14:52:06;;;;;;;;;;;;;;;;;;5063082;28;20007;-61
2021/08/14 14:54:32;;;;;;;;;;;;;;;;;;5067131;28;20566;-61
2021/08/14 14:56:59;;;;;;;;;;;;;;;;;;5067577;28;19916;-62
2021/08/14 14:59:25;;;;;;;;;;;;;;;;;;5068983;28;19995;-61
2021/08/14 15:01:52;;;;;;;;;;;;;;;;;;5067707;28;20446;-62
2021/08/14 15:04:18;;;;;;;;;;;;;;;;;;5068254;28;19916;-60
2021/08/14 15:06:44;;;;;;;;;;;;;;;;;;5058273;28;20187;-59
2021/08/14 15:09:10;;;;;;;;;;;;;;;;;;5067993;28;19915;-59
2021/08/14 15:11:35;;;;;;;;;;;;;;;;;;5066280;28;19978;-60
2021/08/14 15:14:01;;;;;;;;;;;;;;;;;;5065722;28;20039;-60
2021/08/14 15:16:27;;;;;;;;;;;;;;;;;;5066759;28;19910;-59
2021/08/14 15:18:54;;;;;;;;;;;;;;;;;;5066701;28;19916;-60
2021/08/14 15:21:20;;;;;;;;;;;;;;;;;;5064912;28;20192;-59
2021/08/14 15:23:46;;;;;;;;;;;;;;;;;;5065968;28;19987;-60
2021/08/14 15:26:13;;;;;;;;;;;;;;;;;;5066672;28;19921;-60
2021/08/14 15:28:39;;;;;;;;;;;;;;;;;;5066056;28;20391;-60
2021/08/14 15:31:05;;;;;;;;;;;;;;;;;;5065431;28;19919;-60
2021/08/14 15:33:31;;;;;;;;;;;;;;;;;;5066543;28;19912;-61
2021/08/14 15:35:56;;;;;;;;;;;;;;;;;;5064747;28;19912;-61
2021/08/14 15:38:22;;;;;;;;;;;;;;;;;;5062225;28;20374;-61
2021/08/14 15:40:49;;;;;;;;;;;;;;;;;;5051841;28;19916;-61
2021/08/14 15:43:15;;;;;;;;;;;;;;;;;;5065531;28;20276;-61
2021/08/14 15:45:41;;;;;;;;;;;;;;;;;;5063637;28;19919;-59
2021/08/14 15:48:07;;;;;;;;;;;;;;;;;;5064965;28;19916;-61
2021/08/14 15:50:33;;;;;;;;;;;;;;;;;;5065997;28;20058;-60
2021/08/14 15:52:59;;;;;;;;;;;;;;;;;;5064840;28;19919;-61
2021/08/14 15:55:25;;;;;;;;;;;;;;;;;;5066018;28;20299;-60
2021/08/14 15:57:52;;;;;;;;;;;;;;;;;;5062868;28;19912;-60
2021/08/14 16:00:18;;;;;;;;;;;;;;;;;;5063415;28;19927;-60
2021/08/14 16:02:44;;;;;;;;;;;;;;;;;;5065379;28;20011;-60
2021/08/14 16:05:10;;;;;;;;;;;;;;;;;;5064421;28;20009;-59
2021/08/14 16:07:36;;;;;;;;;;;;;;;;;;5066372;28;19995;-59
2021/08/14 16:10:02;;;;;;;;;;;;;;;;;;5066969;28;19938;-59
2021/08/14 16:12:29;;;;;;;;;;;;;;;;;;5064908;28;19942;-59
2021/08/14 16:14:55;;;;;;;;;;;;;;;;;;5046258;28;20011;-59
2021/08/14 16:17:21;;;;;;;;;;;;;;;;;;5046717;28;20004;-59
2021/08/14 16:19:48;;;;;;;;;;;;;;;;;;5045892;28;19909;-59
2021/08/14 16:22:15;;;;;;;;;;;;;;;;;;5065935;28;20283;-59
2021/08/14 16:24:41;;;;;;;;;;;;;;;;;;5065025;28;19913;-59
2021/08/14 16:27:08;;;;;;;;;;;;;;;;;;5065440;28;19908;-59
2021/08/14 16:29:34;;;;;;;;;;;;;;;;;;5064927;28;19923;-59
2021/08/14 16:31:59;;;;;;;;;;;;;;;;;;5065182;28;19913;-59
2021/08/14 16:34:25;;;;;;;;;;;;;;;;;;5064848;28;19920;-59
2021/08/14 16:36:52;;;;;;;;;;;;;;;;;;5065881;28;19920;-59